sensor_id;sensor_type;location;lat;lon;timestamp;pressure;altitude;pressure_sealevel;temperature;humidity
70343;BME280;57767;42.068;24.752;2023-05-09T00:00:08;99267.00;;;11.76;100.00
70343;BME280;57767;42.068;24.752;2023-05-09T00:01:14;99262.09;;;11.73;100.00
70343;BME280;57767;42.068;24.752;2023-05-09T00:02:15;99265.16;;;11.76;100.00
70343;BME280;57767;42.068;24.752;2023-05-09T00:03:18;99247.84;;;11.67;100.00
70343;BME280;57767;42.068;24.752;2023-05-09T00:04:20;99263.31;;;11.64;100.00
70343;BME280;57767;42.068;24.752;2023-05-09T00:05:22;99258.84;;;11.64;100.00
70343;BME280;57767;42.068;24.752;2023-05-09T00:06:24;99255.16;;;11.65;100.00
70343;BME280;57767;42.068;24.752;2023-05-09T00:07:28;99271.22;;;11.70;100.00
70343;BME280;57767;42.068;24.752;2023-05-09T00:08:30;99261.25;;;11.66;100.00
70343;BME280;57767;42.068;24.752;2023-05-09T00:09:32;99256.41;;;11.63;100.00
70343;BME280;57767;42.068;24.752;2023-05-09T00:10:33;99262.91;;;11.60;100.00
70343;BME280;57767;42.068;24.752;2023-05-09T00:11:35;99264.94;;;11.58;100.00
70343;BME280;57767;42.068;24.752;2023-05-09T00:12:37;99261.06;;;11.61;100.00
70343;BME280;57767;42.068;24.752;2023-05-09T00:13:39;99255.97;;;11.59;100.00
70343;BME280;57767;42.068;24.752;2023-05-09T00:14:42;99254.34;;;11.58;100.00
70343;BME280;57767;42.068;24.752;2023-05-09T00:15:46;99256.81;;;11.60;100.00
70343;BME280;57767;42.068;24.752;2023-05-09T00:16:47;99255.56;;;11.56;100.00
70343;BME280;57767;42.068;24.752;2023-05-09T00:17:50;99259.22;;;11.55;100.00
70343;BME280;57767;42.068;24.752;2023-05-09T00:18:52;99252.13;;;11.48;100.00
70343;BME280;57767;42.068;24.752;2023-05-09T00:19:53;99255.56;;;11.56;100.00
70343;BME280;57767;42.068;24.752;2023-05-09T00:20:55;99259.44;;;11.53;100.00
70343;BME280;57767;42.068;24.752;2023-05-09T00:21:58;99262.50;;;11.50;100.00
70343;BME280;57767;42.068;24.752;2023-05-09T00:22:59;99249.50;;;11.48;100.00
70343;BME280;57767;42.068;24.752;2023-05-09T00:24:01;99245.41;;;11.46;100.00
70343;BME280;57767;42.068;24.752;2023-05-09T00:25:04;99248.25;;;11.44;100.00
70343;BME280;57767;42.068;24.752;2023-05-09T00:26:06;99248.84;;;11.40;100.00
70343;BME280;57767;42.068;24.752;2023-05-09T00:27:08;99239.31;;;11.39;100.00
70343;BME280;57767;42.068;24.752;2023-05-09T00:28:10;99246.81;;;11.42;100.00
70343;BME280;57767;42.068;24.752;2023-05-09T00:29:12;99243.56;;;11.40;100.00
70343;BME280;57767;42.068;24.752;2023-05-09T00:30:14;99247.44;;;11.44;100.00
70343;BME280;57767;42.068;24.752;2023-05-09T00:31:15;99242.38;;;11.36;100.00
70343;BME280;57767;42.068;24.752;2023-05-09T00:32:17;99247.25;;;11.39;100.00
70343;BME280;57767;42.068;24.752;2023-05-09T00:33:19;99242.56;;;11.41;100.00
70343;BME280;57767;42.068;24.752;2023-05-09T00:34:21;99253.75;;;11.43;100.00
70343;BME280;57767;42.068;24.752;2023-05-09T00:35:23;99242.56;;;11.41;100.00
70343;BME280;57767;42.068;24.752;2023-05-09T00:36:25;99260.03;;;11.42;100.00
70343;BME280;57767;42.068;24.752;2023-05-09T00:37:28;99254.16;;;11.46;100.00
70343;BME280;57767;42.068;24.752;2023-05-09T00:38:31;99244.63;;;11.39;100.00
70343;BME280;57767;42.068;24.752;2023-05-09T00:39:32;99257.00;;;11.45;100.00
70343;BME280;57767;42.068;24.752;2023-05-09T00:40:34;99253.13;;;11.41;100.00
70343;BME280;57767;42.068;24.752;2023-05-09T00:41:36;99245.44;;;11.39;100.00
70343;BME280;57767;42.068;24.752;2023-05-09T00:42:37;99251.09;;;11.43;100.00
70343;BME280;57767;42.068;24.752;2023-05-09T00:43:39;99259.22;;;11.41;100.00
70343;BME280;57767;42.068;24.752;2023-05-09T00:44:41;99258.03;;;11.44;100.00
70343;BME280;57767;42.068;24.752;2023-05-09T00:45:43;99259.66;;;11.45;100.00
70343;BME280;57767;42.068;24.752;2023-05-09T00:46:46;99250.47;;;11.41;100.00
70343;BME280;57767;42.068;24.752;2023-05-09T00:47:47;99256.81;;;11.46;100.00
70343;BME280;57767;42.068;24.752;2023-05-09T00:48:49;99258.63;;;11.46;100.00
70343;BME280;57767;42.068;24.752;2023-05-09T00:49:53;99258.44;;;11.47;100.00
70343;BME280;57767;42.068;24.752;2023-05-09T00:50:54;99261.06;;;11.47;100.00
70343;BME280;57767;42.068;24.752;2023-05-09T00:51:57;99255.19;;;11.52;100.00
70343;BME280;57767;42.068;24.752;2023-05-09T00:52:59;99264.13;;;11.58;100.00
70343;BME280;57767;42.068;24.752;2023-05-09T00:54:01;99263.31;;;11.57;100.00
70343;BME280;57767;42.068;24.752;2023-05-09T00:55:04;99266.16;;;11.56;100.00
70343;BME280;57767;42.068;24.752;2023-05-09T00:56:10;99261.69;;;11.56;100.00
70343;BME280;57767;42.068;24.752;2023-05-09T00:57:13;99260.06;;;11.48;100.00
70343;BME280;57767;42.068;24.752;2023-05-09T00:58:15;99258.41;;;11.54;100.00
70343;BME280;57767;42.068;24.752;2023-05-09T00:59:17;99249.47;;;11.55;100.00
70343;BME280;57767;42.068;24.752;2023-05-09T01:00:19;99256.78;;;11.53;100.00
70343;BME280;57767;42.068;24.752;2023-05-09T01:01:22;99261.28;;;11.59;100.00
70343;BME280;57767;42.068;24.752;2023-05-09T01:02:25;99257.81;;;11.59;100.00
70343;BME280;57767;42.068;24.752;2023-05-09T01:03:27;99259.84;;;11.63;100.00
70343;BME280;57767;42.068;24.752;2023-05-09T01:04:30;99266.38;;;11.61;100.00
70343;BME280;57767;42.068;24.752;2023-05-09T01:05:41;99263.69;;;11.67;100.00
70343;BME280;57767;42.068;24.752;2023-05-09T01:07:05;99263.69;;;11.67;100.00
70343;BME280;57767;42.068;24.752;2023-05-09T01:08:40;99258.63;;;11.59;100.00
70343;BME280;57767;42.068;24.752;2023-05-09T01:09:50;99259.84;;;11.63;100.00
70343;BME280;57767;42.068;24.752;2023-05-09T01:12:42;99274.50;;;11.72;100.00
70343;BME280;57767;42.068;24.752;2023-05-09T01:13:56;99281.41;;;11.73;100.00
70343;BME280;57767;42.068;24.752;2023-05-09T01:16:46;99279.78;;;11.79;100.00
70343;BME280;57767;42.068;24.752;2023-05-09T01:17:56;99282.06;;;11.75;100.00
70343;BME280;57767;42.068;24.752;2023-05-09T01:21:51;99282.88;;;11.76;100.00
70343;BME280;57767;42.068;24.752;2023-05-09T01:30:25;99268.00;;;11.62;100.00
70343;BME280;57767;42.068;24.752;2023-05-09T01:31:28;99280.00;;;11.64;100.00
70343;BME280;57767;42.068;24.752;2023-05-09T01:32:31;99271.84;;;11.66;100.00
70343;BME280;57767;42.068;24.752;2023-05-09T01:33:37;99281.59;;;11.65;100.00
70343;BME280;57767;42.068;24.752;2023-05-09T01:34:43;99278.75;;;11.67;100.00
70343;BME280;57767;42.068;24.752;2023-05-09T01:35:49;99273.91;;;11.64;100.00
70343;BME280;57767;42.068;24.752;2023-05-09T01:36:55;99279.16;;;11.70;100.00
70343;BME280;57767;42.068;24.752;2023-05-09T01:37:59;99278.56;;;11.68;100.00
70343;BME280;57767;42.068;24.752;2023-05-09T01:39:03;99281.84;;;11.64;100.00
70343;BME280;57767;42.068;24.752;2023-05-09T01:40:16;99277.56;;;11.63;100.00
70343;BME280;57767;42.068;24.752;2023-05-09T01:41:21;99274.72;;;11.64;100.00
70343;BME280;57767;42.068;24.752;2023-05-09T01:42:27;99276.72;;;11.69;100.00
70343;BME280;57767;42.068;24.752;2023-05-09T01:43:32;99278.78;;;11.73;100.00
70343;BME280;57767;42.068;24.752;2023-05-09T01:44:38;99272.66;;;11.73;100.00
70343;BME280;57767;42.068;24.752;2023-05-09T01:45:42;99278.16;;;11.65;100.00
70343;BME280;57767;42.068;24.752;2023-05-09T01:46:44;99276.75;;;11.62;100.00
70343;BME280;57767;42.068;24.752;2023-05-09T01:47:48;99275.53;;;11.65;100.00
70343;BME280;57767;42.068;24.752;2023-05-09T01:48:50;99281.81;;;11.70;100.00
70343;BME280;57767;42.068;24.752;2023-05-09T01:49:54;99286.50;;;11.68;100.00
70343;BME280;57767;42.068;24.752;2023-05-09T01:50:57;99283.22;;;11.66;100.00
70343;BME280;57767;42.068;24.752;2023-05-09T01:52:12;99280.00;;;11.64;100.00
70343;BME280;57767;42.068;24.752;2023-05-09T01:53:16;99276.13;;;11.67;100.00
70343;BME280;57767;42.068;24.752;2023-05-09T01:54:19;99284.06;;;11.73;100.00
70343;BME280;57767;42.068;24.752;2023-05-09T01:55:26;99279.56;;;11.67;100.00
70343;BME280;57767;42.068;24.752;2023-05-09T01:56:29;99284.66;;;11.69;100.00
70343;BME280;57767;42.068;24.752;2023-05-09T01:57:33;99282.22;;;11.67;100.00
70343;BME280;57767;42.068;24.752;2023-05-09T01:58:36;99289.13;;;11.68;100.00
70343;BME280;57767;42.068;24.752;2023-05-09T01:59:43;99285.28;;;11.64;100.00
70343;BME280;57767;42.068;24.752;2023-05-09T02:00:46;99290.78;;;11.63;100.00
70343;BME280;57767;42.068;24.752;2023-05-09T02:01:49;99290.38;;;11.59;100.00
70343;BME280;57767;42.068;24.752;2023-05-09T02:02:51;99292.19;;;11.59;100.00
70343;BME280;57767;42.068;24.752;2023-05-09T02:03:55;99287.72;;;11.59;100.00
70343;BME280;57767;42.068;24.752;2023-05-09T02:04:58;99286.91;;;11.52;100.00
70343;BME280;57767;42.068;24.752;2023-05-09T02:06:02;99293.41;;;11.56;100.00
70343;BME280;57767;42.068;24.752;2023-05-09T02:07:04;99296.69;;;11.65;100.00
70343;BME280;57767;42.068;24.752;2023-05-09T02:08:07;99289.97;;;11.62;100.00
70343;BME280;57767;42.068;24.752;2023-05-09T02:09:10;99286.28;;;11.57;100.00
70343;BME280;57767;42.068;24.752;2023-05-09T02:10:14;99297.28;;;11.60;100.00
70343;BME280;57767;42.068;24.752;2023-05-09T02:11:16;99291.38;;;11.58;100.00
70343;BME280;57767;42.068;24.752;2023-05-09T02:12:18;99289.34;;;11.67;100.00
70343;BME280;57767;42.068;24.752;2023-05-09T02:13:20;99290.75;;;11.69;100.00
70343;BME280;57767;42.068;24.752;2023-05-09T02:14:22;99291.78;;;11.68;100.00
70343;BME280;57767;42.068;24.752;2023-05-09T02:15:24;99293.00;;;11.72;100.00
70343;BME280;57767;42.068;24.752;2023-05-09T02:16:26;99290.56;;;11.71;100.00
70343;BME280;57767;42.068;24.752;2023-05-09T02:17:29;99293.22;;;11.58;100.00
70343;BME280;57767;42.068;24.752;2023-05-09T02:18:31;99287.31;;;11.49;100.00
70343;BME280;57767;42.068;24.752;2023-05-09T02:19:34;99294.44;;;11.55;100.00
70343;BME280;57767;42.068;24.752;2023-05-09T02:20:36;99293.41;;;11.49;100.00
70343;BME280;57767;42.068;24.752;2023-05-09T02:21:38;99301.13;;;11.44;100.00
70343;BME280;57767;42.068;24.752;2023-05-09T02:22:41;99292.59;;;11.49;100.00
70343;BME280;57767;42.068;24.752;2023-05-09T02:23:43;99289.16;;;11.48;100.00
70343;BME280;57767;42.068;24.752;2023-05-09T02:24:45;99302.38;;;11.48;100.00
70343;BME280;57767;42.068;24.752;2023-05-09T02:25:47;99299.94;;;11.47;100.00
70343;BME280;57767;42.068;24.752;2023-05-09T02:26:49;99296.88;;;11.50;100.00
70343;BME280;57767;42.068;24.752;2023-05-09T02:27:52;99303.59;;;11.46;100.00
70343;BME280;57767;42.068;24.752;2023-05-09T02:28:56;99301.97;;;11.38;100.00
70343;BME280;57767;42.068;24.752;2023-05-09T02:30:03;99294.22;;;11.37;100.00
70343;BME280;57767;42.068;24.752;2023-05-09T02:31:09;99295.84;;;11.38;100.00
70343;BME280;57767;42.068;24.752;2023-05-09T02:32:16;99290.16;;;11.34;100.00
70343;BME280;57767;42.068;24.752;2023-05-09T02:33:19;99296.84;;;11.30;100.00
70343;BME280;57767;42.068;24.752;2023-05-09T02:34:21;99293.00;;;11.33;100.00
70343;BME280;57767;42.068;24.752;2023-05-09T02:35:25;99305.63;;;11.37;100.00
70343;BME280;57767;42.068;24.752;2023-05-09T02:36:28;99305.19;;;11.34;100.00
70343;BME280;57767;42.068;24.752;2023-05-09T02:37:30;99307.22;;;11.25;100.00
70343;BME280;57767;42.068;24.752;2023-05-09T02:38:33;99307.19;;;11.19;100.00
70343;BME280;57767;42.068;24.752;2023-05-09T02:39:35;99310.06;;;11.24;100.00
70343;BME280;57767;42.068;24.752;2023-05-09T02:40:38;99310.66;;;11.19;100.00
70343;BME280;57767;42.068;24.752;2023-05-09T02:41:47;99310.66;;;11.19;100.00
70343;BME280;57767;42.068;24.752;2023-05-09T02:42:48;99298.47;;;11.18;100.00
70343;BME280;57767;42.068;24.752;2023-05-09T02:43:50;99312.50;;;11.19;100.00
70343;BME280;57767;42.068;24.752;2023-05-09T02:44:52;99310.66;;;11.19;100.00
70343;BME280;57767;42.068;24.752;2023-05-09T02:45:54;99304.38;;;11.13;100.00
70343;BME280;57767;42.068;24.752;2023-05-09T02:46:56;99310.03;;;11.10;100.00
70343;BME280;57767;42.068;24.752;2023-05-09T02:47:58;99308.41;;;11.09;100.00
70343;BME280;57767;42.068;24.752;2023-05-09T02:48:59;99316.34;;;11.09;100.00
70343;BME280;57767;42.068;24.752;2023-05-09T02:50:01;99310.03;;;11.10;100.00
70343;BME280;57767;42.068;24.752;2023-05-09T02:51:03;99317.16;;;11.10;100.00
70343;BME280;57767;42.068;24.752;2023-05-09T02:52:05;99306.78;;;11.08;100.00
70343;BME280;57767;42.068;24.752;2023-05-09T02:53:07;99314.94;;;11.13;100.00
70343;BME280;57767;42.068;24.752;2023-05-09T02:54:09;99317.34;;;11.15;100.00
70343;BME280;57767;42.068;24.752;2023-05-09T02:55:11;99316.97;;;11.18;100.00
70343;BME280;57767;42.068;24.752;2023-05-09T02:56:13;99312.06;;;11.15;100.00
70343;BME280;57767;42.068;24.752;2023-05-09T02:57:15;99322.44;;;11.17;100.00
70343;BME280;57767;42.068;24.752;2023-05-09T02:58:17;99315.34;;;11.17;100.00
70343;BME280;57767;42.068;24.752;2023-05-09T02:59:19;99310.66;;;11.12;100.00
70343;BME280;57767;42.068;24.752;2023-05-09T03:00:20;99323.69;;;11.14;100.00
70343;BME280;57767;42.068;24.752;2023-05-09T03:01:23;99315.53;;;11.16;100.00
70343;BME280;57767;42.068;24.752;2023-05-09T03:02:25;99318.97;;;11.16;100.00
70343;BME280;57767;42.068;24.752;2023-05-09T03:03:27;99321.22;;;11.19;100.00
70343;BME280;57767;42.068;24.752;2023-05-09T03:04:29;99315.94;;;11.12;100.00
70343;BME280;57767;42.068;24.752;2023-05-09T03:05:31;99313.09;;;11.14;100.00
70343;BME280;57767;42.068;24.752;2023-05-09T03:06:33;99317.97;;;11.17;100.00
70343;BME280;57767;42.068;24.752;2023-05-09T03:07:35;99315.75;;;11.21;100.00
70343;BME280;57767;42.068;24.752;2023-05-09T03:08:37;99317.78;;;11.12;100.00
70343;BME280;57767;42.068;24.752;2023-05-09T03:09:39;99321.81;;;11.14;100.00
70343;BME280;57767;42.068;24.752;2023-05-09T03:10:41;99321.81;;;11.14;100.00
70343;BME280;57767;42.068;24.752;2023-05-09T03:11:43;99326.31;;;11.21;100.00
70343;BME280;57767;42.068;24.752;2023-05-09T03:12:45;99325.09;;;11.17;100.00
70343;BME280;57767;42.068;24.752;2023-05-09T03:13:46;99332.63;;;11.20;100.00
70343;BME280;57767;42.068;24.752;2023-05-09T03:14:48;99326.31;;;11.21;100.00
70343;BME280;57767;42.068;24.752;2023-05-09T03:15:50;99327.34;;;11.20;100.00
70343;BME280;57767;42.068;24.752;2023-05-09T03:16:52;99333.84;;;11.24;100.00
70343;BME280;57767;42.068;24.752;2023-05-09T03:17:53;99335.47;;;11.18;100.00
70343;BME280;57767;42.068;24.752;2023-05-09T03:18:56;99338.53;;;11.22;100.00
70343;BME280;57767;42.068;24.752;2023-05-09T03:19:57;99340.97;;;11.23;100.00
70343;BME280;57767;42.068;24.752;2023-05-09T03:21:01;99354.38;;;11.22;100.00
70343;BME280;57767;42.068;24.752;2023-05-09T03:22:03;99340.56;;;11.20;100.00
70343;BME280;57767;42.068;24.752;2023-05-09T03:23:05;99338.91;;;11.19;100.00
70343;BME280;57767;42.068;24.752;2023-05-09T03:24:07;99333.84;;;11.17;100.00
70343;BME280;57767;42.068;24.752;2023-05-09T03:25:09;99338.31;;;11.10;100.00
70343;BME280;57767;42.068;24.752;2023-05-09T03:26:10;99349.88;;;11.16;100.00
70343;BME280;57767;42.068;24.752;2023-05-09T03:27:13;99351.13;;;11.20;100.00
70343;BME280;57767;42.068;24.752;2023-05-09T03:28:15;99335.66;;;11.10;100.00
70343;BME280;57767;42.068;24.752;2023-05-09T03:29:17;99334.44;;;11.12;100.00
70343;BME280;57767;42.068;24.752;2023-05-09T03:30:18;99351.50;;;11.17;100.00
70343;BME280;57767;42.068;24.752;2023-05-09T03:31:20;99340.75;;;11.11;100.00
70343;BME280;57767;42.068;24.752;2023-05-09T03:32:22;99340.91;;;11.03;100.00
70343;BME280;57767;42.068;24.752;2023-05-09T03:33:24;99354.97;;;11.10;100.00
70343;BME280;57767;42.068;24.752;2023-05-09T03:34:26;99347.03;;;11.10;100.00
70343;BME280;57767;42.068;24.752;2023-05-09T03:35:28;99354.16;;;11.17;100.00
70343;BME280;57767;42.068;24.752;2023-05-09T03:36:29;99351.50;;;11.17;100.00
70343;BME280;57767;42.068;24.752;2023-05-09T03:37:32;99352.75;;;11.14;100.00
70343;BME280;57767;42.068;24.752;2023-05-09T03:38:34;99351.72;;;11.15;100.00
70343;BME280;57767;42.068;24.752;2023-05-09T03:39:36;99354.34;;;11.15;100.00
70343;BME280;57767;42.068;24.752;2023-05-09T03:40:37;99355.16;;;11.16;100.00
70343;BME280;57767;42.068;24.752;2023-05-09T03:41:39;99347.66;;;11.12;100.00
70343;BME280;57767;42.068;24.752;2023-05-09T03:42:42;99353.16;;;11.11;100.00
70343;BME280;57767;42.068;24.752;2023-05-09T03:43:44;99352.31;;;11.10;100.00
70343;BME280;57767;42.068;24.752;2023-05-09T03:44:46;99358.81;;;11.08;100.00
70343;BME280;57767;42.068;24.752;2023-05-09T03:45:48;99360.03;;;11.05;100.00
70343;BME280;57767;42.068;24.752;2023-05-09T03:46:49;99366.94;;;11.06;100.00
70343;BME280;57767;42.068;24.752;2023-05-09T03:47:51;99364.91;;;11.08;100.00
70343;BME280;57767;42.068;24.752;2023-05-09T03:48:53;99369.81;;;11.11;100.00
70343;BME280;57767;42.068;24.752;2023-05-09T03:49:55;99365.75;;;11.16;100.00
70343;BME280;57767;42.068;24.752;2023-05-09T03:50:57;99370.44;;;11.20;100.00
70343;BME280;57767;42.068;24.752;2023-05-09T03:51:58;99371.06;;;11.22;100.00
70343;BME280;57767;42.068;24.752;2023-05-09T03:53:01;99364.34;;;11.20;100.00
70343;BME280;57767;42.068;24.752;2023-05-09T03:54:02;99373.72;;;11.22;100.00
70343;BME280;57767;42.068;24.752;2023-05-09T03:55:05;99366.38;;;11.18;100.00
70343;BME280;57767;42.068;24.752;2023-05-09T03:56:07;99370.25;;;11.22;100.00
70343;BME280;57767;42.068;24.752;2023-05-09T03:57:08;99373.47;;;11.17;100.00
70343;BME280;57767;42.068;24.752;2023-05-09T03:58:11;99361.50;;;11.21;100.00
70343;BME280;57767;42.068;24.752;2023-05-09T03:59:13;99366.97;;;11.20;100.00
70343;BME280;57767;42.068;24.752;2023-05-09T04:00:15;99362.50;;;11.20;100.00
70343;BME280;57767;42.068;24.752;2023-05-09T04:01:16;99369.25;;;11.29;100.00
70343;BME280;57767;42.068;24.752;2023-05-09T04:02:18;99364.97;;;11.28;100.00
70343;BME280;57767;42.068;24.752;2023-05-09T04:03:20;99363.34;;;11.27;100.00
70343;BME280;57767;42.068;24.752;2023-05-09T04:04:22;99371.88;;;11.23;100.00
70343;BME280;57767;42.068;24.752;2023-05-09T04:05:24;99371.03;;;11.16;100.00
70343;BME280;57767;42.068;24.752;2023-05-09T04:06:27;99376.31;;;11.16;100.00
70343;BME280;57767;42.068;24.752;2023-05-09T04:07:30;99358.63;;;11.16;100.00
70343;BME280;57767;42.068;24.752;2023-05-09T04:08:32;99357.81;;;11.16;100.00
70343;BME280;57767;42.068;24.752;2023-05-09T04:09:34;99365.34;;;11.12;100.00
70343;BME280;57767;42.068;24.752;2023-05-09T04:10:36;99363.91;;;11.16;100.00
70343;BME280;57767;42.068;24.752;2023-05-09T04:11:38;99361.88;;;11.11;100.00
70343;BME280;57767;42.068;24.752;2023-05-09T04:12:39;99361.28;;;11.16;100.00
70343;BME280;57767;42.068;24.752;2023-05-09T04:13:41;99367.38;;;11.17;100.00
70343;BME280;57767;42.068;24.752;2023-05-09T04:14:43;99359.63;;;11.15;100.00
70343;BME280;57767;42.068;24.752;2023-05-09T04:15:48;99341.53;;;11.05;100.00
70343;BME280;57767;42.068;24.752;2023-05-09T04:16:50;99373.91;;;11.14;100.00
70343;BME280;57767;42.068;24.752;2023-05-09T04:17:52;99362.66;;;11.05;100.00
70343;BME280;57767;42.068;24.752;2023-05-09T04:18:53;99372.03;;;11.08;100.00
70343;BME280;57767;42.068;24.752;2023-05-09T04:19:55;99356.38;;;11.06;100.00
70343;BME280;57767;42.068;24.752;2023-05-09T04:20:57;99366.56;;;11.16;100.00
70343;BME280;57767;42.068;24.752;2023-05-09T04:21:59;99365.16;;;11.13;100.00
70343;BME280;57767;42.068;24.752;2023-05-09T04:23:00;99369.00;;;11.18;100.00
70343;BME280;57767;42.068;24.752;2023-05-09T04:24:02;99365.34;;;11.19;100.00
70343;BME280;57767;42.068;24.752;2023-05-09T04:25:04;99355.19;;;11.22;100.00
70343;BME280;57767;42.068;24.752;2023-05-09T04:26:07;99368.22;;;11.24;100.00
70343;BME280;57767;42.068;24.752;2023-05-09T04:27:10;99371.06;;;11.22;100.00
70343;BME280;57767;42.068;24.752;2023-05-09T04:28:11;99377.56;;;11.20;100.00
70343;BME280;57767;42.068;24.752;2023-05-09T04:29:13;99364.97;;;11.22;100.00
70343;BME280;57767;42.068;24.752;2023-05-09T04:30:15;99374.53;;;11.29;100.00
70343;BME280;57767;42.068;24.752;2023-05-09T04:31:17;99370.69;;;11.32;100.00
70343;BME280;57767;42.068;24.752;2023-05-09T04:32:20;99366.63;;;11.36;100.00
70343;BME280;57767;42.068;24.752;2023-05-09T04:33:23;99364.78;;;11.43;100.00
70343;BME280;57767;42.068;24.752;2023-05-09T04:34:25;99365.81;;;11.35;100.00
70343;BME280;57767;42.068;24.752;2023-05-09T04:35:28;99367.25;;;11.38;100.00
70343;BME280;57767;42.068;24.752;2023-05-09T04:36:30;99364.19;;;11.34;100.00
70343;BME280;57767;42.068;24.752;2023-05-09T04:37:34;99366.63;;;11.36;100.00
70343;BME280;57767;42.068;24.752;2023-05-09T04:38:36;99368.25;;;11.37;100.00
70343;BME280;57767;42.068;24.752;2023-05-09T04:39:38;99370.28;;;11.41;100.00
70343;BME280;57767;42.068;24.752;2023-05-09T04:40:40;99373.53;;;11.43;100.00
70343;BME280;57767;42.068;24.752;2023-05-09T04:41:42;99364.78;;;11.36;100.00
70343;BME280;57767;42.068;24.752;2023-05-09T04:42:44;99369.28;;;11.49;100.00
70343;BME280;57767;42.068;24.752;2023-05-09T04:43:46;99371.13;;;11.55;100.00
70343;BME280;57767;42.068;24.752;2023-05-09T04:44:48;99367.25;;;11.58;100.00
70343;BME280;57767;42.068;24.752;2023-05-09T04:45:50;99371.13;;;11.55;100.00
70343;BME280;57767;42.068;24.752;2023-05-09T04:46:52;99374.38;;;11.51;100.00
70343;BME280;57767;42.068;24.752;2023-05-09T04:47:55;99370.50;;;11.53;100.00
70343;BME280;57767;42.068;24.752;2023-05-09T04:48:57;99372.13;;;11.54;100.00
70343;BME280;57767;42.068;24.752;2023-05-09T04:49:59;99376.84;;;11.52;100.00
70343;BME280;57767;42.068;24.752;2023-05-09T04:51:01;99382.72;;;11.54;100.00
70343;BME280;57767;42.068;24.752;2023-05-09T04:52:05;99369.91;;;11.51;100.00
70343;BME280;57767;42.068;24.752;2023-05-09T04:53:07;99370.72;;;11.58;100.00
70343;BME280;57767;42.068;24.752;2023-05-09T04:54:09;99381.31;;;11.58;100.00
70343;BME280;57767;42.068;24.752;2023-05-09T04:55:11;99379.09;;;11.62;100.00
70343;BME280;57767;42.068;24.752;2023-05-09T04:56:13;99381.69;;;11.55;100.00
70343;BME280;57767;42.068;24.752;2023-05-09T04:57:15;99375.41;;;11.56;100.00
70343;BME280;57767;42.068;24.752;2023-05-09T04:58:19;99384.56;;;11.60;100.00
70343;BME280;57767;42.068;24.752;2023-05-09T04:59:21;99374.59;;;11.56;100.00
70343;BME280;57767;42.068;24.752;2023-05-09T05:00:22;99374.38;;;11.57;100.00
70343;BME280;57767;42.068;24.752;2023-05-09T05:01:24;99379.47;;;11.65;100.00
70343;BME280;57767;42.068;24.752;2023-05-09T05:02:27;99386.78;;;11.57;100.00
70343;BME280;57767;42.068;24.752;2023-05-09T05:03:28;99377.44;;;11.47;100.00
70343;BME280;57767;42.068;24.752;2023-05-09T05:04:30;99384.78;;;11.52;100.00
70343;BME280;57767;42.068;24.752;2023-05-09T05:05:33;99388.00;;;11.54;100.00
70343;BME280;57767;42.068;24.752;2023-05-09T05:06:38;99382.72;;;11.54;100.00
70343;BME280;57767;42.068;24.752;2023-05-09T05:07:39;99378.84;;;11.57;100.00
70343;BME280;57767;42.068;24.752;2023-05-09T05:08:41;99380.69;;;11.56;100.00
70343;BME280;57767;42.068;24.752;2023-05-09T05:09:43;99385.81;;;11.64;100.00
70343;BME280;57767;42.068;24.752;2023-05-09T05:10:45;99387.00;;;11.62;100.00
70343;BME280;57767;42.068;24.752;2023-05-09T05:11:47;99383.34;;;11.63;100.00
70343;BME280;57767;42.068;24.752;2023-05-09T05:13:02;99384.19;;;11.63;100.00
70343;BME280;57767;42.068;24.752;2023-05-09T05:14:04;99388.44;;;11.71;100.00
70343;BME280;57767;42.068;24.752;2023-05-09T05:15:06;99395.16;;;11.73;100.00
70343;BME280;57767;42.068;24.752;2023-05-09T05:16:08;99394.16;;;11.74;100.00
70343;BME280;57767;42.068;24.752;2023-05-09T05:17:09;99390.72;;;11.80;100.00
70343;BME280;57767;42.068;24.752;2023-05-09T05:18:11;99392.16;;;11.76;100.00
70343;BME280;57767;42.068;24.752;2023-05-09T05:19:13;99402.31;;;11.79;100.00
70343;BME280;57767;42.068;24.752;2023-05-09T05:20:15;99391.53;;;11.81;100.00
70343;BME280;57767;42.068;24.752;2023-05-09T05:21:17;99394.38;;;11.79;100.00
70343;BME280;57767;42.068;24.752;2023-05-09T05:22:18;99393.78;;;11.77;100.00
70343;BME280;57767;42.068;24.752;2023-05-09T05:23:20;99393.94;;;11.63;100.00
70343;BME280;57767;42.068;24.752;2023-05-09T05:24:22;99399.63;;;11.66;100.00
70343;BME280;57767;42.068;24.752;2023-05-09T05:25:27;99392.28;;;11.55;100.00
70343;BME280;57767;42.068;24.752;2023-05-09T05:26:29;99395.75;;;11.49;100.00
70343;BME280;57767;42.068;24.752;2023-05-09T05:27:31;99390.84;;;11.53;100.00
70343;BME280;57767;42.068;24.752;2023-05-09T05:28:32;99391.88;;;11.52;100.00
70343;BME280;57767;42.068;24.752;2023-05-09T05:29:34;99399.78;;;11.45;100.00
70343;BME280;57767;42.068;24.752;2023-05-09T05:30:36;99396.31;;;11.38;100.00
70343;BME280;57767;42.068;24.752;2023-05-09T05:31:38;99392.66;;;11.45;100.00
70343;BME280;57767;42.068;24.752;2023-05-09T05:32:40;99391.66;;;11.46;100.00
70343;BME280;57767;42.068;24.752;2023-05-09T05:33:42;99388.19;;;11.53;100.00
70343;BME280;57767;42.068;24.752;2023-05-09T05:34:44;99393.09;;;11.56;100.00
70343;BME280;57767;42.068;24.752;2023-05-09T05:35:45;99394.72;;;11.57;100.00
70343;BME280;57767;42.068;24.752;2023-05-09T05:36:47;99392.69;;;11.52;100.00
70343;BME280;57767;42.068;24.752;2023-05-09T05:37:52;99393.50;;;11.59;100.00